Pagrindinis puslapis
METAR-TAF:

METAR-TAF

Oro uostai :

Karpathos, Graikija

platuma: 35-24-51N, ilguma: 027-08-54E, Aukštis: 6 m

Dabartinis oras

Ataskaita buvo paskelbta 38 minutes, ne 09:20 UTC
Vėjas 28 kt iš Šiaurės Vakarų
Temperatūra 14°C
Drėgmė 51%
Slėgis 1012 hPa
Matomumas 10 km arba daugiau
Išsisklaidę debesys ne aukštis 1800 ft

METAR: LGKP 290920Z 32028KT 9999 SCT018 14/04 Q1012

Laikas: 11:58 (09:58 UTC)

Prognozė

Ataskaita buvo paskelbta 1 valandą ir 58 minutes, ne 08:00 UTC
Prognozė galioja nuo 29 metu 09 UTC su 29 metu 18 UTC
Vėjas 25 kt iš Šiaurės Vakarų su gūsio iki 40 kt
Matomumas 10 km arba daugiau
Su prošvaistėmis ne aukštis 1800 ft
Tikimybė 30% :
Laikinai
nuo 29 metu 09 UTC su 29 metu 15 UTC
Matomumas: 6000 m
lietus

TAF: LGKP 290800Z 2909/2918 32025G40KT 9999 BKN018 PROB30 TEMPO 2909/2915 6000 RA

Orai ataskaitas ir orų prognozės (METAR, TAF).

turimą stotys yra geltonos ir raudonos taškus žemėlapyje.

Perkelti pele per norėdami pamatyti stoties vardą.

Tada spustelėkite, norėdami matyti oro stebėjimo ir prognozės.

Norėdami pakeisti žemėlapį: spustelėkite ant žalios mygtukų su juodo kryžiaus žemyn,; žalią mygtuką su brūkšneliu, jei norite nutolinti; arba žalių rodyklių gretimoms žemėlapius.


METAR-TAF: